Terminal Aerodrome Forecast
Issued by NWS Twin Cities, MN

Home | Current Version | Previous Version | Graphics & Text | Print | Product List | Glossary On
Versions: 1 2 3 4 5 6 7 8 9 10 11 12 13 14 15 16 17
000
FTUS43 KMPX 250400 AAA
TAFEAU
TAF AMD
KEAU 250410Z 2504/2524 15012KT P6SM SCT025 SCT100
     FM250500 17008KT 6SM -TSRA SCT020 BKN040CB
      TEMPO 2505/2507 1SM -TSRA BR SCT007 OVC020CB
     FM250700 21004KT P6SM BKN040 OVC080
     FM251500 25009KT P6SM SKC=

USA.gov is the U.S. government's official web portal to all federal, state and local government web resources and services.